Time;durP1;ratioP1;P1;durP2;ratioP2;P2;SDS_P1;SDS_P2;PMS_P1;PMS_P2;Temp;Humidity;BMP_temperature;BMP_pressure;BME280_temperature;BME280_humidity;BME280_pressure;Samples;Min_cycle;Max_cycle;Signal;HPM_P1;HPM_P2
2022/03/31 00:00:49;;;;;;;;;;;8.80;82.00;;;;;;5083860;28;19952;-77
2022/03/31 00:03:16;;;;;;;;;;;8.80;83.00;;;;;;5083820;28;20003;-77
2022/03/31 00:05:41;;;;;;;;;;;8.70;80.80;;;;;;5083873;28;19916;-77
2022/03/31 00:08:09;;;;;;;;;;;8.80;81.80;;;;;;5083819;28;19913;-77
2022/03/31 00:10:40;;;;;;;;;;;8.70;80.40;;;;;;5083624;28;19908;-78
2022/03/31 00:13:09;;;;;;;;;;;8.70;80.60;;;;;;5080967;28;19915;-77
2022/03/31 00:15:35;;;;;;;;;;;8.70;80.10;;;;;;5080609;28;19985;-77
2022/03/31 00:18:01;;;;;;;;;;;8.60;79.40;;;;;;5080452;28;19912;-78
2022/03/31 00:20:27;;;;;;;;;;;8.60;79.90;;;;;;5080406;28;19913;-78
2022/03/31 00:22:53;;;;;;;;;;;8.50;79.70;;;;;;5080431;28;19908;-78
2022/03/31 00:25:19;;;;;;;;;;;8.50;82.20;;;;;;5080122;28;19914;-77
2022/03/31 00:27:45;;;;;;;;;;;8.50;82.70;;;;;;5077317;28;19999;-77
2022/03/31 00:30:12;;;;;;;;;;;8.50;83.00;;;;;;5080101;28;19963;-77
2022/03/31 00:32:38;;;;;;;;;;;8.50;82.70;;;;;;5080394;28;19915;-77
2022/03/31 00:35:04;;;;;;;;;;;8.40;82.10;;;;;;5080198;28;19909;-77
2022/03/31 00:37:30;;;;;;;;;;;8.40;81.50;;;;;;5080078;28;19912;-77
2022/03/31 00:39:56;;;;;;;;;;;8.30;80.00;;;;;;5079717;28;19951;-77
2022/03/31 00:42:22;;;;;;;;;;;8.20;78.90;;;;;;5079752;28;19912;-77
2022/03/31 00:44:48;;;;;;;;;;;8.20;78.00;;;;;;5079849;28;20273;-77
2022/03/31 00:47:13;;;;;;;;;;;8.10;77.60;;;;;;5079910;28;20003;-77
2022/03/31 00:49:39;;;;;;;;;;;8.10;77.30;;;;;;5079845;28;20379;-77
2022/03/31 00:52:05;;;;;;;;;;;8.10;79.60;;;;;;5079997;28;19916;-77
2022/03/31 00:54:32;;;;;;;;;;;8.10;82.30;;;;;;5079471;28;19916;-77
2022/03/31 00:56:57;;;;;;;;;;;8.10;82.80;;;;;;5079825;28;19978;-77
2022/03/31 00:59:24;;;;;;;;;;;8.20;82.90;;;;;;5079569;28;20406;-77
2022/03/31 01:01:49;;;;;;;;;;;8.10;82.20;;;;;;5079819;28;20390;-77
2022/03/31 01:04:15;;;;;;;;;;;8.20;82.10;;;;;;5079590;28;19963;-77
2022/03/31 01:06:44;;;;;;;;;;;8.20;83.40;;;;;;5079532;28;19909;-77
2022/03/31 01:09:12;;;;;;;;;;;8.30;84.80;;;;;;5079330;28;19913;-77
2022/03/31 01:11:38;;;;;;;;;;;8.30;85.20;;;;;;5061797;28;19919;-77
2022/03/31 01:14:04;;;;;;;;;;;8.30;85.40;;;;;;5079043;28;19908;-77
2022/03/31 01:16:30;;;;;;;;;;;8.40;85.50;;;;;;5079668;28;20003;-77
2022/03/31 01:18:56;;;;;;;;;;;8.30;84.80;;;;;;5079479;28;19915;-77
2022/03/31 01:21:22;;;;;;;;;;;8.30;84.80;;;;;;5079581;28;19909;-77
2022/03/31 01:23:47;;;;;;;;;;;8.30;84.40;;;;;;5079013;28;19944;-77
2022/03/31 01:26:13;;;;;;;;;;;8.20;83.00;;;;;;5079426;28;19909;-77
2022/03/31 01:28:40;;;;;;;;;;;8.10;81.40;;;;;;5078356;28;19909;-76
2022/03/31 01:31:06;;;;;;;;;;;8.00;80.90;;;;;;5079116;28;19916;-76
2022/03/31 01:33:32;;;;;;;;;;;8.00;81.20;;;;;;5078851;28;19909;-76
2022/03/31 01:35:59;;;;;;;;;;;8.00;82.40;;;;;;5078954;28;19909;-76
2022/03/31 01:38:25;;;;;;;;;;;7.90;82.30;;;;;;5079031;28;19938;-76
2022/03/31 01:40:51;;;;;;;;;;;7.90;82.10;;;;;;5078649;28;19908;-76
2022/03/31 01:43:16;;;;;;;;;;;7.90;83.20;;;;;;5078697;28;19908;-76
2022/03/31 01:45:42;;;;;;;;;;;7.90;84.00;;;;;;5079106;28;19916;-76
2022/03/31 01:48:08;;;;;;;;;;;7.90;84.30;;;;;;5078462;28;20371;-76
2022/03/31 01:50:34;;;;;;;;;;;8.00;85.00;;;;;;5078800;28;19908;-76
2022/03/31 01:52:59;;;;;;;;;;;8.00;84.60;;;;;;5078496;28;19927;-76
2022/03/31 01:55:25;;;;;;;;;;;8.10;85.40;;;;;;5078576;28;19913;-76
2022/03/31 01:57:50;;;;;;;;;;;8.20;84.90;;;;;;5078246;28;19913;-77
2022/03/31 02:00:16;;;;;;;;;;;8.20;84.00;;;;;;5078615;28;19912;-77
2022/03/31 02:02:43;;;;;;;;;;;8.20;84.10;;;;;;5078364;28;19999;-77
2022/03/31 02:05:09;;;;;;;;;;;8.20;83.70;;;;;;5078716;28;20429;-77
2022/03/31 02:07:36;;;;;;;;;;;8.30;85.20;;;;;;5078335;28;19909;-77
2022/03/31 02:10:03;;;;;;;;;;;8.40;86.00;;;;;;5078175;28;19948;-77
2022/03/31 02:12:28;;;;;;;;;;;8.40;87.20;;;;;;5077836;28;19913;-77
2022/03/31 02:14:54;;;;;;;;;;;8.40;87.00;;;;;;5078768;28;19915;-76
2022/03/31 02:17:20;;;;;;;;;;;8.50;87.30;;;;;;5078045;28;19913;-77
2022/03/31 02:19:45;;;;;;;;;;;8.50;87.70;;;;;;5078386;28;19908;-77
2022/03/31 02:22:11;;;;;;;;;;;8.50;87.50;;;;;;5078065;28;21001;-76
2022/03/31 02:24:37;;;;;;;;;;;8.50;87.60;;;;;;5078329;28;19934;-77
2022/03/31 02:27:03;;;;;;;;;;;8.50;87.30;;;;;;5077208;28;19909;-76
2022/03/31 02:29:29;;;;;;;;;;;8.50;87.50;;;;;;5078307;28;19955;-76
2022/03/31 02:31:55;;;;;;;;;;;8.50;87.40;;;;;;5077860;28;19916;-76
2022/03/31 02:34:21;;;;;;;;;;;8.50;87.10;;;;;;5077978;28;19908;-76
2022/03/31 02:36:46;;;;;;;;;;;8.50;87.10;;;;;;5077225;28;19938;-76
2022/03/31 02:39:12;;;;;;;;;;;8.40;85.90;;;;;;5077943;28;19909;-76
2022/03/31 02:41:38;;;;;;;;;;;8.40;85.20;;;;;;5077632;28;19909;-76
2022/03/31 02:44:05;;;;;;;;;;;8.40;87.40;;;;;;5077656;28;19908;-76
2022/03/31 02:46:31;;;;;;;;;;;8.50;87.50;;;;;;5077785;28;19908;-76
2022/03/31 02:48:58;;;;;;;;;;;8.40;87.20;;;;;;5077650;28;20386;-76
2022/03/31 02:51:25;;;;;;;;;;;8.50;87.40;;;;;;5078040;28;19908;-76
2022/03/31 02:56:35;;;;;;;;;;;8.50;87.60;;;;;;5066116;28;19918;-76
2022/03/31 02:59:01;;;;;;;;;;;8.50;87.10;;;;;;5077582;28;19943;-76
2022/03/31 03:01:29;;;;;;;;;;;8.50;86.30;;;;;;5077831;28;19935;-76
2022/03/31 03:03:56;;;;;;;;;;;8.50;85.80;;;;;;5077643;28;19908;-76
2022/03/31 03:06:22;;;;;;;;;;;8.50;86.50;;;;;;5077977;28;19908;-76
2022/03/31 03:08:47;;;;;;;;;;;8.40;85.50;;;;;;5059598;28;20299;-76
2022/03/31 03:11:15;;;;;;;;;;;8.30;83.80;;;;;;5077617;28;20306;-76
2022/03/31 03:13:40;;;;;;;;;;;8.20;83.30;;;;;;5077282;28;20435;-76
2022/03/31 03:16:08;;;;;;;;;;;8.20;82.70;;;;;;5077755;28;20005;-76
2022/03/31 03:18:34;;;;;;;;;;;8.20;83.20;;;;;;5077708;28;19909;-76
2022/03/31 03:21:04;;;;;;;;;;;8.20;84.70;;;;;;5077750;28;19912;-76
2022/03/31 03:23:31;;;;;;;;;;;8.20;85.40;;;;;;5077343;28;19944;-76
2022/03/31 03:25:56;;;;;;;;;;;8.20;84.40;;;;;;5077454;28;19915;-76
2022/03/31 03:28:22;;;;;;;;;;;8.10;83.60;;;;;;5076663;28;20308;-76
2022/03/31 03:30:48;;;;;;;;;;;8.10;82.50;;;;;;5077367;28;19908;-76
2022/03/31 03:33:14;;;;;;;;;;;8.00;82.90;;;;;;5077227;28;20370;-76
2022/03/31 03:35:40;;;;;;;;;;;8.00;83.50;;;;;;5077270;28;19970;-76
2022/03/31 03:38:07;;;;;;;;;;;7.90;83.90;;;;;;5077185;28;19912;-76
2022/03/31 03:40:33;;;;;;;;;;;7.90;82.70;;;;;;5077254;28;19909;-76
2022/03/31 03:42:58;;;;;;;;;;;7.80;81.90;;;;;;5076985;28;19909;-76
2022/03/31 03:45:24;;;;;;;;;;;7.80;81.60;;;;;;5077475;28;19995;-76
2022/03/31 03:47:50;;;;;;;;;;;7.80;81.30;;;;;;5077348;28;19920;-76
2022/03/31 03:50:16;;;;;;;;;;;7.80;81.30;;;;;;5081309;28;19930;-76
2022/03/31 03:52:42;;;;;;;;;;;7.80;81.20;;;;;;5080953;28;19909;-76
2022/03/31 03:55:08;;;;;;;;;;;7.90;81.30;;;;;;5080842;28;20287;-76
2022/03/31 03:57:34;;;;;;;;;;;7.90;81.30;;;;;;5080560;28;19931;-76
2022/03/31 03:59:59;;;;;;;;;;;8.00;81.30;;;;;;5080873;28;20479;-76
2022/03/31 04:02:26;;;;;;;;;;;8.00;81.40;;;;;;5062650;28;19915;-76
2022/03/31 04:04:52;;;;;;;;;;;8.00;81.40;;;;;;5080779;28;20346;-76
2022/03/31 04:07:18;;;;;;;;;;;8.00;81.40;;;;;;5080713;28;19955;-76
2022/03/31 04:09:43;;;;;;;;;;;8.00;82.00;;;;;;5080629;28;19931;-76
2022/03/31 04:12:09;;;;;;;;;;;8.10;82.20;;;;;;5080251;28;19931;-76
2022/03/31 04:14:35;;;;;;;;;;;8.10;81.40;;;;;;5080832;28;19916;-76
2022/03/31 04:17:02;;;;;;;;;;;8.10;81.10;;;;;;5080458;28;19934;-76
2022/03/31 04:19:27;;;;;;;;;;;8.10;80.90;;;;;;5080549;28;20384;-76
2022/03/31 04:21:53;;;;;;;;;;;8.10;81.10;;;;;;5080364;28;19939;-76
2022/03/31 04:24:18;;;;;;;;;;;8.20;81.20;;;;;;5080377;28;19908;-76
2022/03/31 04:26:44;;;;;;;;;;;8.20;81.00;;;;;;5079630;28;21226;-76
2022/03/31 04:29:10;;;;;;;;;;;8.20;81.30;;;;;;5080409;28;19931;-76
2022/03/31 04:31:37;;;;;;;;;;;8.20;81.20;;;;;;5080403;28;19909;-76
2022/03/31 04:34:03;;;;;;;;;;;8.30;81.10;;;;;;5080142;28;20403;-75
2022/03/31 04:36:28;;;;;;;;;;;8.30;81.00;;;;;;5079956;28;19919;-75
2022/03/31 04:38:54;;;;;;;;;;;8.30;80.70;;;;;;5080010;28;19963;-78
2022/03/31 04:41:20;;;;;;;;;;;8.30;81.00;;;;;;5079794;28;20393;-75
2022/03/31 04:43:46;;;;;;;;;;;8.30;81.20;;;;;;5079815;28;19908;-80
2022/03/31 04:46:11;;;;;;;;;;;8.40;84.50;;;;;;5075462;28;19916;-76
2022/03/31 04:48:37;;;;;;;;;;;8.40;86.40;;;;;;5078914;28;19931;-77
2022/03/31 04:51:05;;;;;;;;;;;8.30;86.00;;;;;;5079208;28;20220;-78
2022/03/31 04:53:30;;;;;;;;;;;8.40;87.00;;;;;;5079869;28;19939;-76
2022/03/31 04:55:56;;;;;;;;;;;8.30;86.00;;;;;;5079442;28;19912;-81
2022/03/31 04:58:22;;;;;;;;;;;8.20;84.80;;;;;;5061284;28;20390;-83
2022/03/31 05:00:48;;;;;;;;;;;8.20;83.40;;;;;;5079206;28;19943;-76
2022/03/31 05:03:13;;;;;;;;;;;8.20;85.10;;;;;;5062059;28;19957;-76
2022/03/31 05:05:39;;;;;;;;;;;8.10;86.00;;;;;;5079473;28;19955;-77
2022/03/31 05:08:04;;;;;;;;;;;8.00;85.00;;;;;;5079628;28;19916;-84
2022/03/31 05:10:30;;;;;;;;;;;7.90;85.90;;;;;;5061903;28;19909;-78
2022/03/31 05:12:56;;;;;;;;;;;7.90;86.50;;;;;;5061611;28;20318;-77
2022/03/31 05:15:21;;;;;;;;;;;7.90;87.30;;;;;;5061636;28;20428;-81
2022/03/31 05:17:47;;;;;;;;;;;7.90;88.00;;;;;;5061304;28;19973;-80
2022/03/31 05:20:13;;;;;;;;;;;7.90;88.30;;;;;;5079165;28;19908;-81
2022/03/31 05:22:42;;;;;;;;;;;7.90;88.30;;;;;;5079257;28;19909;-81
2022/03/31 05:25:08;;;;;;;;;;;8.00;88.70;;;;;;5060859;28;19909;-81
2022/03/31 05:27:40;;;;;;;;;;;8.00;89.00;;;;;;5078595;28;19912;-81
2022/03/31 05:30:06;;;;;;;;;;;8.00;89.20;;;;;;5079086;28;19913;-82
2022/03/31 05:32:32;;;;;;;;;;;8.00;89.80;;;;;;5061021;28;19999;-82
2022/03/31 05:34:57;;;;;;;;;;;8.10;90.00;;;;;;5079072;28;19963;-82
2022/03/31 05:37:23;;;;;;;;;;;8.10;90.00;;;;;;5078891;28;19913;-82
2022/03/31 05:39:50;;;;;;;;;;;8.10;89.40;;;;;;5077991;28;19908;-83
2022/03/31 05:42:15;;;;;;;;;;;8.10;89.20;;;;;;5078082;28;19908;-83
2022/03/31 05:44:41;;;;;;;;;;;8.20;89.00;;;;;;5078826;28;19908;-82
2022/03/31 05:47:07;;;;;;;;;;;8.20;89.20;;;;;;5078700;28;19989;-81
2022/03/31 05:49:32;;;;;;;;;;;8.20;88.20;;;;;;5078725;28;19916;-82
2022/03/31 05:51:58;;;;;;;;;;;8.20;88.10;;;;;;5078690;28;19909;-81
2022/03/31 05:54:24;;;;;;;;;;;8.20;87.00;;;;;;5078483;28;19909;-80
2022/03/31 05:56:50;;;;;;;;;;;8.20;88.10;;;;;;5060271;28;19917;-81
2022/03/31 05:59:15;;;;;;;;;;;8.20;88.10;;;;;;5077021;28;20324;-81
2022/03/31 06:01:42;;;;;;;;;;;8.10;87.10;;;;;;5060442;28;20268;-80
2022/03/31 06:04:08;;;;;;;;;;;8.10;87.30;;;;;;5060546;28;19995;-81
2022/03/31 06:06:34;;;;;;;;;;;8.10;85.20;;;;;;5077081;28;19908;-80
2022/03/31 06:09:00;;;;;;;;;;;8.00;84.40;;;;;;5060136;28;19912;-81
2022/03/31 06:11:26;;;;;;;;;;;8.00;84.10;;;;;;5077480;28;19930;-81
2022/03/31 06:13:51;;;;;;;;;;;8.10;86.30;;;;;;5078063;28;20303;-81
2022/03/31 06:16:17;;;;;;;;;;;8.20;87.30;;;;;;5060229;28;20283;-81
2022/03/31 06:18:43;;;;;;;;;;;8.20;88.00;;;;;;5078182;28;19971;-81
2022/03/31 06:21:09;;;;;;;;;;;8.30;87.00;;;;;;5060464;28;19959;-80
2022/03/31 06:23:35;;;;;;;;;;;8.30;86.80;;;;;;5078144;28;20338;-81
2022/03/31 06:26:01;;;;;;;;;;;8.40;86.40;;;;;;5078146;28;19939;-81
2022/03/31 06:28:28;;;;;;;;;;;8.40;85.70;;;;;;5059266;28;19909;-81
2022/03/31 06:30:54;;;;;;;;;;;8.40;84.80;;;;;;5078219;28;19988;-81
2022/03/31 06:33:20;;;;;;;;;;;8.50;84.80;;;;;;5077794;28;19908;-81
2022/03/31 06:35:46;;;;;;;;;;;8.50;84.50;;;;;;5077986;28;19999;-81
2022/03/31 06:38:12;;;;;;;;;;;8.50;84.70;;;;;;5077759;28;19912;-81
2022/03/31 06:40:38;;;;;;;;;;;8.60;84.20;;;;;;5059978;28;19908;-81
2022/03/31 06:43:05;;;;;;;;;;;8.60;83.70;;;;;;5077476;28;20046;-81
2022/03/31 06:45:31;;;;;;;;;;;8.60;83.70;;;;;;5059785;28;19930;-81
2022/03/31 06:47:58;;;;;;;;;;;8.60;83.60;;;;;;5077520;28;19967;-81
2022/03/31 06:50:24;;;;;;;;;;;8.70;83.20;;;;;;5077970;28;19908;-81
2022/03/31 06:52:50;;;;;;;;;;;8.70;83.00;;;;;;5077591;28;19916;-81
2022/03/31 06:55:15;;;;;;;;;;;8.70;83.20;;;;;;5059706;28;19915;-81
2022/03/31 06:57:41;;;;;;;;;;;8.70;83.20;;;;;;5077276;28;20003;-81
2022/03/31 07:00:07;;;;;;;;;;;8.70;82.90;;;;;;5077739;28;19915;-81
2022/03/31 07:02:33;;;;;;;;;;;8.70;82.50;;;;;;5077810;28;19915;-81
2022/03/31 07:04:59;;;;;;;;;;;8.70;82.30;;;;;;5077729;28;19908;-81
2022/03/31 07:07:24;;;;;;;;;;;8.70;82.50;;;;;;5077556;28;19908;-81
2022/03/31 07:09:51;;;;;;;;;;;8.70;82.60;;;;;;5077551;28;19913;-81
2022/03/31 07:12:17;;;;;;;;;;;8.70;82.60;;;;;;5077211;28;19909;-81
2022/03/31 07:14:43;;;;;;;;;;;8.70;83.20;;;;;;5077658;28;19954;-81
2022/03/31 07:17:10;;;;;;;;;;;8.70;82.60;;;;;;5077346;28;19919;-81
2022/03/31 07:19:35;;;;;;;;;;;8.70;82.50;;;;;;5077818;28;20327;-81
2022/03/31 07:22:02;;;;;;;;;;;8.70;82.90;;;;;;5060241;28;19998;-81
2022/03/31 07:24:27;;;;;;;;;;;8.70;82.30;;;;;;5081396;28;19912;-81
2022/03/31 07:26:53;;;;;;;;;;;8.70;82.10;;;;;;5080703;28;19983;-81
2022/03/31 07:29:18;;;;;;;;;;;8.60;83.00;;;;;;5081500;28;19908;-81
2022/03/31 07:31:44;;;;;;;;;;;8.70;83.50;;;;;;5081378;28;19952;-81
2022/03/31 07:34:10;;;;;;;;;;;8.70;82.80;;;;;;5081246;28;19959;-81
2022/03/31 07:36:35;;;;;;;;;;;8.60;82.30;;;;;;5063447;28;19916;-82
2022/03/31 07:39:01;;;;;;;;;;;8.60;82.20;;;;;;5081017;28;19916;-81
2022/03/31 07:41:27;;;;;;;;;;;8.70;82.90;;;;;;5081110;28;19917;-81
2022/03/31 07:43:53;;;;;;;;;;;8.60;83.40;;;;;;5063287;28;19915;-81
2022/03/31 07:46:18;;;;;;;;;;;8.60;83.40;;;;;;5063397;28;19917;-81
2022/03/31 07:48:44;;;;;;;;;;;8.70;84.00;;;;;;5081124;28;19921;-81
2022/03/31 07:51:09;;;;;;;;;;;8.60;84.10;;;;;;5062916;28;19919;-81
2022/03/31 07:53:35;;;;;;;;;;;8.70;84.80;;;;;;5080986;28;19998;-81
2022/03/31 07:56:04;;;;;;;;;;;8.60;83.80;;;;;;5080704;28;19959;-81
2022/03/31 07:58:30;;;;;;;;;;;8.60;83.90;;;;;;5080695;28;19912;-81
2022/03/31 08:00:56;;;;;;;;;;;8.60;83.60;;;;;;5080732;28;19968;-81
2022/03/31 08:03:24;;;;;;;;;;;8.50;83.60;;;;;;5080964;28;19916;-81
2022/03/31 08:05:51;;;;;;;;;;;8.60;83.70;;;;;;5080636;28;20360;-81
2022/03/31 08:08:17;;;;;;;;;;;8.60;83.70;;;;;;5081061;28;20302;-81
2022/03/31 08:10:43;;;;;;;;;;;8.60;83.70;;;;;;5062450;28;19908;-81
2022/03/31 08:13:09;;;;;;;;;;;8.60;83.30;;;;;;5062678;28;20692;-81
2022/03/31 08:15:34;;;;;;;;;;;8.60;83.10;;;;;;5062743;28;19908;-81
2022/03/31 08:18:01;;;;;;;;;;;8.50;82.90;;;;;;5080613;28;19917;-81
2022/03/31 08:20:26;;;;;;;;;;;8.60;83.00;;;;;;5080408;28;19912;-81
2022/03/31 08:22:52;;;;;;;;;;;8.60;83.00;;;;;;5080680;28;19962;-81
2022/03/31 08:25:18;;;;;;;;;;;8.60;82.70;;;;;;5080194;28;19908;-81
2022/03/31 08:27:44;;;;;;;;;;;8.60;82.90;;;;;;5079717;28;19915;-81
2022/03/31 08:30:10;;;;;;;;;;;8.60;83.40;;;;;;5080209;28;19930;-81
2022/03/31 08:32:39;;;;;;;;;;;8.60;83.10;;;;;;5080292;28;20288;-81
2022/03/31 08:35:08;;;;;;;;;;;8.60;83.40;;;;;;5061156;28;19908;-82
2022/03/31 08:37:34;;;;;;;;;;;8.60;83.40;;;;;;5080116;28;19912;-79
2022/03/31 08:39:59;;;;;;;;;;;8.50;82.90;;;;;;5079714;28;19919;-80
2022/03/31 08:42:25;;;;;;;;;;;8.50;82.80;;;;;;5061792;28;19914;-80
2022/03/31 08:44:51;;;;;;;;;;;8.60;83.60;;;;;;5079913;28;19935;-80
2022/03/31 08:47:18;;;;;;;;;;;8.60;83.80;;;;;;5079940;28;19956;-80
2022/03/31 08:49:45;;;;;;;;;;;8.60;83.60;;;;;;5079881;28;19966;-80
2022/03/31 08:52:10;;;;;;;;;;;8.60;83.30;;;;;;5079895;28;20010;-79
2022/03/31 08:54:36;;;;;;;;;;;8.60;83.20;;;;;;5079643;28;19955;-79
2022/03/31 08:57:02;;;;;;;;;;;8.60;83.00;;;;;;5061494;28;19912;-80
2022/03/31 08:59:28;;;;;;;;;;;8.60;83.50;;;;;;5079708;28;20288;-80
2022/03/31 09:01:54;;;;;;;;;;;8.60;83.50;;;;;;5079743;28;19915;-80
2022/03/31 09:04:23;;;;;;;;;;;8.70;83.60;;;;;;5079632;28;19951;-80
2022/03/31 09:06:59;;;;;;;;;;;8.70;83.30;;;;;;5079687;28;19908;-80
2022/03/31 09:09:25;;;;;;;;;;;8.70;83.50;;;;;;5066723;28;19908;-80
2022/03/31 09:11:51;;;;;;;;;;;8.80;83.40;;;;;;5079226;28;20431;-80
2022/03/31 09:14:27;;;;;;;;;;;8.90;83.40;;;;;;5079686;28;19973;-80
2022/03/31 09:16:52;;;;;;;;;;;8.90;83.10;;;;;;5079307;28;19919;-80
2022/03/31 09:19:18;;;;;;;;;;;9.00;82.70;;;;;;5079686;28;19909;-79
2022/03/31 09:21:54;;;;;;;;;;;9.00;82.80;;;;;;5079217;28;20402;-79
2022/03/31 09:24:21;;;;;;;;;;;8.90;82.10;;;;;;5079273;28;19916;-79
2022/03/31 09:26:47;;;;;;;;;;;8.90;81.70;;;;;;5078496;28;19912;-79
2022/03/31 09:29:14;;;;;;;;;;;8.90;81.80;;;;;;5079482;28;19908;-81
2022/03/31 09:31:40;;;;;;;;;;;8.80;81.70;;;;;;5079048;28;19909;-81
2022/03/31 09:34:06;;;;;;;;;;;8.80;81.70;;;;;;5078943;28;19975;-79
2022/03/31 09:36:32;;;;;;;;;;;8.70;80.70;;;;;;5078777;28;19916;-81
2022/03/31 09:38:59;;;;;;;;;;;8.70;80.40;;;;;;5079053;28;19915;-79
2022/03/31 09:41:29;;;;;;;;;;;8.60;80.70;;;;;;5075049;28;19958;-79
2022/03/31 09:43:56;;;;;;;;;;;8.60;80.70;;;;;;5078898;28;19908;-79
2022/03/31 09:46:23;;;;;;;;;;;8.50;80.60;;;;;;5078633;28;19908;-79
2022/03/31 09:48:49;;;;;;;;;;;8.50;80.40;;;;;;5078645;28;19920;-79
2022/03/31 09:51:15;;;;;;;;;;;8.50;80.60;;;;;;5078636;28;20488;-78
2022/03/31 09:53:41;;;;;;;;;;;8.40;80.60;;;;;;5060920;28;19909;-78
2022/03/31 09:56:07;;;;;;;;;;;8.40;80.30;;;;;;5078435;28;20321;-79
2022/03/31 09:58:35;;;;;;;;;;;8.50;80.20;;;;;;5078437;28;19919;-79
2022/03/31 10:01:02;;;;;;;;;;;8.50;80.40;;;;;;5060441;28;19908;-79
2022/03/31 10:03:28;;;;;;;;;;;8.50;80.20;;;;;;5078592;28;19916;-78
2022/03/31 10:05:54;;;;;;;;;;;8.60;80.10;;;;;;5060384;28;20286;-79
2022/03/31 10:08:20;;;;;;;;;;;8.60;79.70;;;;;;5060473;28;20401;-79
2022/03/31 10:10:46;;;;;;;;;;;8.60;79.70;;;;;;5078114;28;19908;-79
2022/03/31 10:13:15;;;;;;;;;;;8.60;79.90;;;;;;5078063;28;19971;-78
2022/03/31 10:15:41;;;;;;;;;;;8.60;79.60;;;;;;5078114;28;19914;-78
2022/03/31 10:18:07;;;;;;;;;;;8.70;79.80;;;;;;5078216;28;20426;-77
2022/03/31 10:20:33;;;;;;;;;;;8.70;79.10;;;;;;5060101;28;19958;-79
2022/03/31 10:25:45;;;;;;;;;;;8.60;78.50;;;;;;5067510;28;20326;-78
2022/03/31 10:28:14;;;;;;;;;;;8.50;78.60;;;;;;5077322;28;19952;-79
2022/03/31 10:30:51;;;;;;;;;;;8.50;77.90;;;;;;5078546;28;19909;-79
2022/03/31 10:33:26;;;;;;;;;;;8.50;78.20;;;;;;5078120;28;19909;-79
2022/03/31 10:35:59;;;;;;;;;;;8.50;78.80;;;;;;5060105;28;19916;-79
2022/03/31 10:38:25;;;;;;;;;;;8.50;79.00;;;;;;5077930;28;19999;-81
2022/03/31 10:40:52;;;;;;;;;;;8.50;79.50;;;;;;5077693;28;19951;-78
2022/03/31 10:43:25;;;;;;;;;;;8.60;79.40;;;;;;5059459;28;19912;-78
2022/03/31 10:45:54;;;;;;;;;;;8.60;79.30;;;;;;5059893;28;20012;-78
2022/03/31 10:48:21;;;;;;;;;;;8.60;78.70;;;;;;5059603;28;19920;-78
2022/03/31 10:50:48;;;;;;;;;;;8.60;78.20;;;;;;5078137;28;19915;-77
2022/03/31 10:53:14;;;;;;;;;;;8.60;78.70;;;;;;5079990;28;19908;-78
2022/03/31 10:55:41;;;;;;;;;;;8.60;78.90;;;;;;5060034;28;19995;-78
2022/03/31 10:58:18;;;;;;;;;;;8.70;78.90;;;;;;5077023;28;20326;-78
2022/03/31 11:00:43;;;;;;;;;;;8.80;79.20;;;;;;5078067;28;19909;-77
2022/03/31 11:03:09;;;;;;;;;;;9.00;78.50;;;;;;5077787;28;20291;-77
2022/03/31 11:05:38;;;;;;;;;;;9.10;78.00;;;;;;5059577;28;19909;-77
2022/03/31 11:08:04;;;;;;;;;;;9.30;77.70;;;;;;5077949;28;19909;-76
2022/03/31 11:10:40;;;;;;;;;;;9.50;78.70;;;;;;5077397;28;20704;-76
2022/03/31 11:13:07;;;;;;;;;;;9.70;77.50;;;;;;5077519;28;19909;-77
2022/03/31 11:15:33;;;;;;;;;;;9.70;76.10;;;;;;5077543;28;19908;-77
2022/03/31 11:18:01;;;;;;;;;;;9.70;76.00;;;;;;5077626;28;20257;-77
2022/03/31 11:20:27;;;;;;;;;;;9.70;75.40;;;;;;5059429;28;19915;-78
2022/03/31 11:22:54;;;;;;;;;;;9.70;74.60;;;;;;5077787;28;19972;-78
2022/03/31 11:25:21;;;;;;;;;;;9.70;74.40;;;;;;5077327;28;20359;-77
2022/03/31 11:27:48;;;;;;;;;;;9.60;74.80;;;;;;5076898;28;19931;-78
2022/03/31 11:30:14;;;;;;;;;;;9.60;75.60;;;;;;5077385;28;19916;-77
2022/03/31 11:32:41;;;;;;;;;;;9.50;75.10;;;;;;5077673;28;19940;-77
2022/03/31 11:35:15;;;;;;;;;;;9.60;75.60;;;;;;5077198;28;19908;-77
2022/03/31 11:37:43;;;;;;;;;;;9.60;76.00;;;;;;5069554;28;19986;-77
2022/03/31 11:40:11;;;;;;;;;;;9.60;75.60;;;;;;5076996;28;19908;-77
2022/03/31 11:42:42;;;;;;;;;;;9.60;75.40;;;;;;5077244;28;19908;-77
2022/03/31 11:45:08;;;;;;;;;;;9.70;74.80;;;;;;5064817;28;19958;-75
2022/03/31 11:47:34;;;;;;;;;;;9.70;74.40;;;;;;5059368;28;20360;-77
2022/03/31 11:50:00;;;;;;;;;;;9.70;74.40;;;;;;5059638;28;19912;-77
2022/03/31 11:52:32;;;;;;;;;;;9.70;75.10;;;;;;5059358;28;19908;-77
2022/03/31 11:55:00;;;;;;;;;;;9.70;74.80;;;;;;5077224;28;19954;-77
2022/03/31 11:57:27;;;;;;;;;;;9.70;75.10;;;;;;5059165;28;19912;-77
2022/03/31 11:59:52;;;;;;;;;;;9.70;74.50;;;;;;5077332;28;19952;-77
2022/03/31 12:02:18;;;;;;;;;;;9.50;73.60;;;;;;5077045;28;19955;-77
2022/03/31 12:04:45;;;;;;;;;;;9.40;73.40;;;;;;5059470;28;20301;-77
2022/03/31 12:07:11;;;;;;;;;;;9.20;73.80;;;;;;5077211;28;19992;-78
2022/03/31 12:09:41;;;;;;;;;;;9.10;73.70;;;;;;5078633;28;19948;-78
2022/03/31 12:12:17;;;;;;;;;;;9.00;75.00;;;;;;5080330;28;19908;-78
2022/03/31 12:14:55;;;;;;;;;;;9.00;75.10;;;;;;5080685;28;19987;-78
2022/03/31 12:17:21;;;;;;;;;;;9.00;75.20;;;;;;5049337;28;19935;-78
2022/03/31 12:19:47;;;;;;;;;;;9.00;75.30;;;;;;5080675;28;19942;-78
2022/03/31 12:22:14;;;;;;;;;;;9.10;75.30;;;;;;5067171;28;19950;-78
2022/03/31 12:24:50;;;;;;;;;;;9.10;74.90;;;;;;5080277;28;19908;-78
2022/03/31 12:27:17;;;;;;;;;;;9.10;74.80;;;;;;5079900;28;19916;-78
2022/03/31 12:29:43;;;;;;;;;;;9.20;74.50;;;;;;5080576;28;19955;-78
2022/03/31 12:32:09;;;;;;;;;;;9.20;74.00;;;;;;5080175;28;19908;-78
2022/03/31 12:34:36;;;;;;;;;;;9.30;74.30;;;;;;5080405;28;19915;-78
2022/03/31 12:37:02;;;;;;;;;;;9.30;74.60;;;;;;5090989;28;19912;-78
2022/03/31 12:39:28;;;;;;;;;;;9.30;74.30;;;;;;5080111;28;19909;-78
2022/03/31 12:41:55;;;;;;;;;;;9.50;75.30;;;;;;5066676;28;19909;-78
2022/03/31 12:44:23;;;;;;;;;;;9.60;74.70;;;;;;5080127;28;19909;-78
2022/03/31 12:46:52;;;;;;;;;;;9.80;74.30;;;;;;5080368;28;19912;-77
2022/03/31 12:49:22;;;;;;;;;;;9.80;73.60;;;;;;5079773;28;19928;-76
2022/03/31 12:51:52;;;;;;;;;;;9.70;72.00;;;;;;5080292;28;19908;-78
2022/03/31 12:54:27;;;;;;;;;;;9.70;73.00;;;;;;5061920;28;20371;-78
2022/03/31 12:56:57;;;;;;;;;;;9.70;73.20;;;;;;5079714;28;19913;-78
2022/03/31 12:59:24;;;;;;;;;;;9.70;73.30;;;;;;5079785;28;20349;-78
2022/03/31 13:01:56;;;;;;;;;;;9.70;72.90;;;;;;5079836;28;19931;-78
2022/03/31 13:04:21;;;;;;;;;;;9.70;72.30;;;;;;5079674;28;19915;-78
2022/03/31 13:06:47;;;;;;;;;;;9.70;72.70;;;;;;5079707;28;19912;-78
2022/03/31 13:09:13;;;;;;;;;;;9.70;72.60;;;;;;5079417;28;19909;-78
2022/03/31 13:11:40;;;;;;;;;;;9.70;72.90;;;;;;5079463;28;19916;-78
2022/03/31 13:14:05;;;;;;;;;;;9.80;73.50;;;;;;5079717;28;20010;-78
2022/03/31 13:16:31;;;;;;;;;;;10.00;74.40;;;;;;5079445;28;19908;-78
2022/03/31 13:18:56;;;;;;;;;;;10.10;74.00;;;;;;5079320;28;19908;-77
2022/03/31 13:21:23;;;;;;;;;;;10.30;73.60;;;;;;5079052;28;19930;-78
2022/03/31 13:23:49;;;;;;;;;;;10.40;72.50;;;;;;5079271;28;19957;-77
2022/03/31 13:26:14;;;;;;;;;;;10.50;71.60;;;;;;5079233;28;20359;-78
2022/03/31 13:28:40;;;;;;;;;;;10.60;72.70;;;;;;5078677;28;20303;-76
2022/03/31 13:31:06;;;;;;;;;;;10.70;72.40;;;;;;5079439;28;19915;-77
2022/03/31 13:33:32;;;;;;;;;;;10.80;71.40;;;;;;5078916;28;19909;-77
2022/03/31 13:35:58;;;;;;;;;;;10.90;70.00;;;;;;5061357;28;19943;-79
2022/03/31 13:38:24;;;;;;;;;;;10.80;68.00;;;;;;5078912;28;19912;-77
2022/03/31 13:40:50;;;;;;;;;;;10.50;67.50;;;;;;5078656;28;19908;-77
2022/03/31 13:43:15;;;;;;;;;;;10.10;68.00;;;;;;5078555;28;20003;-74
2022/03/31 13:45:41;;;;;;;;;;;9.70;68.50;;;;;;5078973;28;20382;-78
2022/03/31 13:48:07;;;;;;;;;;;9.40;69.10;;;;;;5060730;28;19921;-78
2022/03/31 13:50:32;;;;;;;;;;;9.20;70.90;;;;;;5078872;28;19909;-78
2022/03/31 13:55:42;;;;;;;;;;;9.30;74.30;;;;;;5078658;28;19979;-77
2022/03/31 14:01:10;;;;;;;;;;;9.70;74.00;;;;;;5078600;28;19915;-78
2022/03/31 14:03:37;;;;;;;;;;;9.70;73.70;;;;;;5078699;28;19913;-80
2022/03/31 14:06:03;;;;;;;;;;;9.80;73.40;;;;;;5078348;28;19908;-77
2022/03/31 14:08:28;;;;;;;;;;;9.80;73.20;;;;;;5078605;28;19954;-76
2022/03/31 14:10:55;;;;;;;;;;;9.80;71.50;;;;;;5078331;28;20371;-77
2022/03/31 14:13:21;;;;;;;;;;;9.70;68.30;;;;;;5078170;28;19909;-78
2022/03/31 14:15:46;;;;;;;;;;;9.60;67.40;;;;;;5078319;28;19909;-77
2022/03/31 14:18:12;;;;;;;;;;;9.50;67.60;;;;;;5078340;28;20260;-77
2022/03/31 14:20:37;;;;;;;;;;;9.50;67.80;;;;;;5078296;28;19912;-78
2022/03/31 14:23:03;;;;;;;;;;;9.50;68.30;;;;;;5078482;28;19909;-78
2022/03/31 14:25:29;;;;;;;;;;;9.50;69.30;;;;;;5078067;28;19909;-78
2022/03/31 14:27:55;;;;;;;;;;;9.50;68.60;;;;;;5075615;28;19916;-77
2022/03/31 14:30:21;;;;;;;;;;;9.50;67.90;;;;;;5059990;28;19908;-77
2022/03/31 14:32:47;;;;;;;;;;;9.50;68.00;;;;;;5077217;28;19974;-77
2022/03/31 14:35:13;;;;;;;;;;;9.50;67.60;;;;;;5077952;28;20283;-77